Time;durP1;ratioP1;P1;durP2;ratioP2;P2;SDS_P1;SDS_P2;PMS_P1;PMS_P2;Temp;Humidity;BMP_temperature;BMP_pressure;BME280_temperature;BME280_humidity;BME280_pressure;Samples;Min_cycle;Max_cycle;Signal;HPM_P1;HPM_P2
2022/11/07 04:58:57;;;;;;;;;;;20.80;99.90;;;;;;5016624;22;19926;-83
2022/11/07 05:01:23;;;;;;;;;;;20.70;99.90;;;;;;5016740;28;19925;-84
2022/11/07 05:03:50;;;;;;;;;;;20.60;99.90;;;;;;5016385;28;20399;-82
2022/11/07 05:06:17;;;;;;;;;;;20.70;99.90;;;;;;5016674;28;19934;-83
2022/11/07 05:08:44;;;;;;;;;;;20.70;99.90;;;;;;5016478;28;20400;-83
2022/11/07 05:11:11;;;;;;;;;;;20.70;99.90;;;;;;5031716;22;19929;-82
2022/11/07 05:13:38;;;;;;;;;;;20.70;99.90;;;;;;5017767;28;19925;-81
2022/11/07 05:16:06;;;;;;;;;;;20.70;99.90;;;;;;5017518;28;19925;-80
2022/11/07 05:18:33;;;;;;;;;;;20.70;99.90;;;;;;5015561;28;20384;-78
2022/11/07 05:20:59;;;;;;;;;;;20.70;99.90;;;;;;5014225;28;19933;-78
2022/11/07 05:23:27;;;;;;;;;;;20.70;99.90;;;;;;5014496;28;19964;-78
2022/11/07 05:25:54;;;;;;;;;;;20.70;99.90;;;;;;5017963;28;20003;-78
2022/11/07 05:28:21;;;;;;;;;;;20.70;99.90;;;;;;5017765;28;19930;-78
2022/11/07 05:30:48;;;;;;;;;;;20.70;99.90;;;;;;5019369;28;19926;-80
2022/11/07 05:33:17;;;;;;;;;;;20.60;99.90;;;;;;5020256;28;19932;-78
2022/11/07 05:35:44;;;;;;;;;;;20.70;99.90;;;;;;5017555;28;19926;-78
2022/11/07 05:38:11;;;;;;;;;;;20.70;99.90;;;;;;5017783;28;19976;-77
2022/11/07 05:40:38;;;;;;;;;;;20.70;99.90;;;;;;5017725;28;19925;-77
2022/11/07 05:43:06;;;;;;;;;;;20.70;99.90;;;;;;5017682;28;19926;-78
2022/11/07 05:45:36;;;;;;;;;;;20.70;99.90;;;;;;5017692;28;19925;-77
2022/11/07 05:48:04;;;;;;;;;;;20.70;99.90;;;;;;5018759;28;19992;-77
2022/11/07 05:50:31;;;;;;;;;;;20.70;99.90;;;;;;5017292;28;19929;-77
2022/11/07 05:52:58;;;;;;;;;;;20.60;99.90;;;;;;5017496;28;19925;-77
2022/11/07 05:55:25;;;;;;;;;;;20.70;99.90;;;;;;5017173;28;20381;-77
2022/11/07 05:57:52;;;;;;;;;;;20.70;99.90;;;;;;5017314;28;19925;-77
2022/11/07 06:00:18;;;;;;;;;;;20.60;99.90;;;;;;5016904;28;20324;-77
2022/11/07 06:02:45;;;;;;;;;;;20.70;99.90;;;;;;5017260;28;19925;-77
2022/11/07 06:05:12;;;;;;;;;;;20.70;99.90;;;;;;5017093;28;19925;-78
2022/11/07 06:07:40;;;;;;;;;;;20.70;99.90;;;;;;5017823;28;19926;-76
2022/11/07 06:10:07;;;;;;;;;;;20.70;99.90;;;;;;5019126;28;19925;-76
2022/11/07 06:12:34;;;;;;;;;;;20.70;99.90;;;;;;5017741;28;19980;-77
2022/11/07 06:15:00;;;;;;;;;;;20.60;99.90;;;;;;5016791;28;19929;-77
2022/11/07 06:17:27;;;;;;;;;;;20.70;99.90;;;;;;5017026;28;20288;-78
2022/11/07 06:19:53;;;;;;;;;;;20.70;99.90;;;;;;5017304;28;19929;-78
2022/11/07 06:22:20;;;;;;;;;;;20.60;99.90;;;;;;5019037;28;19925;-78
2022/11/07 06:24:48;;;;;;;;;;;20.60;99.90;;;;;;5018092;28;19932;-78
2022/11/07 06:27:14;;;;;;;;;;;20.70;99.90;;;;;;5018580;28;19926;-78
2022/11/07 06:29:41;;;;;;;;;;;20.60;99.90;;;;;;5018424;28;19930;-78
2022/11/07 06:32:07;;;;;;;;;;;20.60;99.90;;;;;;5018526;28;20400;-78
2022/11/07 06:34:34;;;;;;;;;;;20.60;99.90;;;;;;5020032;28;19925;-78
2022/11/07 06:37:00;;;;;;;;;;;20.60;99.90;;;;;;5018881;28;19929;-78
2022/11/07 06:39:27;;;;;;;;;;;20.60;99.90;;;;;;5019121;28;20001;-78
2022/11/07 06:41:55;;;;;;;;;;;20.60;99.90;;;;;;5019143;28;20313;-78
2022/11/07 06:44:22;;;;;;;;;;;20.60;99.90;;;;;;5018987;28;19926;-78
2022/11/07 06:46:48;;;;;;;;;;;20.60;99.90;;;;;;5019067;28;20412;-78
2022/11/07 06:49:15;;;;;;;;;;;20.60;99.90;;;;;;5019024;28;20311;-78
2022/11/07 06:51:42;;;;;;;;;;;20.60;99.90;;;;;;5019189;28;19932;-78
2022/11/07 06:54:08;;;;;;;;;;;20.60;99.90;;;;;;5018476;28;19925;-78
2022/11/07 06:56:35;;;;;;;;;;;20.60;99.90;;;;;;5018035;28;19925;-78
2022/11/07 06:59:03;;;;;;;;;;;20.60;99.90;;;;;;5017519;28;20314;-78
2022/11/07 07:01:29;;;;;;;;;;;20.60;99.90;;;;;;5017809;28;19925;-78
2022/11/07 07:03:56;;;;;;;;;;;20.60;99.90;;;;;;5018063;28;19941;-78
2022/11/07 07:06:23;;;;;;;;;;;20.60;99.90;;;;;;5018180;28;19932;-78
2022/11/07 07:08:49;;;;;;;;;;;20.60;99.90;;;;;;5018558;28;20292;-78
2022/11/07 07:11:16;;;;;;;;;;;20.60;99.90;;;;;;5017659;28;19925;-78
2022/11/07 07:13:42;;;;;;;;;;;20.60;99.90;;;;;;5018128;28;20348;-78
2022/11/07 07:16:10;;;;;;;;;;;20.60;99.70;;;;;;5018521;28;19932;-78
2022/11/07 07:18:37;;;;;;;;;;;20.60;99.60;;;;;;5018653;28;19925;-78
2022/11/07 07:21:04;;;;;;;;;;;20.60;99.40;;;;;;5018340;28;19932;-78
2022/11/07 07:23:33;;;;;;;;;;;20.60;99.30;;;;;;5017731;28;19936;-78
2022/11/07 07:26:00;;;;;;;;;;;20.60;99.10;;;;;;5017371;28;19981;-78
2022/11/07 07:28:26;;;;;;;;;;;20.60;99.00;;;;;;5017222;28;20289;-78
2022/11/07 07:30:53;;;;;;;;;;;20.60;98.80;;;;;;5017937;28;19925;-78
2022/11/07 07:33:21;;;;;;;;;;;20.60;98.70;;;;;;5018675;28;19932;-78
2022/11/07 07:35:47;;;;;;;;;;;20.60;98.60;;;;;;5018677;28;19925;-78
2022/11/07 07:38:14;;;;;;;;;;;20.60;98.40;;;;;;5018284;28;19933;-78
2022/11/07 07:40:41;;;;;;;;;;;20.60;98.30;;;;;;5019183;28;19925;-78
2022/11/07 07:43:07;;;;;;;;;;;20.60;98.10;;;;;;5019305;28;19932;-78
2022/11/07 07:45:34;;;;;;;;;;;20.60;98.00;;;;;;5019260;28;19932;-78
2022/11/07 07:48:01;;;;;;;;;;;20.60;98.00;;;;;;5018784;28;19926;-78
2022/11/07 07:50:29;;;;;;;;;;;20.60;98.00;;;;;;5019393;28;19980;-78
2022/11/07 07:52:56;;;;;;;;;;;20.60;97.80;;;;;;5019054;28;19925;-78
2022/11/07 07:55:22;;;;;;;;;;;20.60;97.70;;;;;;5018840;28;19929;-78
2022/11/07 07:57:49;;;;;;;;;;;20.60;97.50;;;;;;5018203;28;19925;-78
2022/11/07 08:00:16;;;;;;;;;;;20.60;97.40;;;;;;5017988;28;19925;-78
2022/11/07 08:02:43;;;;;;;;;;;20.60;97.30;;;;;;5019614;28;19932;-78
2022/11/07 08:05:09;;;;;;;;;;;20.60;97.20;;;;;;5019474;28;19926;-78
2022/11/07 08:07:43;;;;;;;;;;;20.60;97.10;;;;;;5019207;28;19930;-78
2022/11/07 08:10:10;;;;;;;;;;;20.60;97.00;;;;;;5019360;28;19940;-78
2022/11/07 08:12:36;;;;;;;;;;;20.60;96.80;;;;;;5018563;28;20293;-78
2022/11/07 08:15:03;;;;;;;;;;;20.60;96.80;;;;;;5018094;28;19926;-78
2022/11/07 08:17:30;;;;;;;;;;;20.50;96.60;;;;;;5017544;28;19925;-78
2022/11/07 08:19:56;;;;;;;;;;;20.60;96.60;;;;;;5017949;28;19925;-78
2022/11/07 08:22:23;;;;;;;;;;;20.70;96.50;;;;;;5017773;28;19926;-78
2022/11/07 08:24:51;;;;;;;;;;;20.50;96.30;;;;;;5018755;28;19933;-78
2022/11/07 08:27:17;;;;;;;;;;;20.60;96.30;;;;;;5018081;28;20301;-78
2022/11/07 08:29:44;;;;;;;;;;;20.60;96.20;;;;;;5018127;28;19926;-78
2022/11/07 08:32:11;;;;;;;;;;;20.60;96.10;;;;;;5018128;28;19940;-78
2022/11/07 08:34:38;;;;;;;;;;;20.50;96.00;;;;;;5017603;28;19933;-78
2022/11/07 08:37:05;;;;;;;;;;;20.50;95.90;;;;;;5017630;28;20365;-78
2022/11/07 08:39:31;;;;;;;;;;;20.60;95.90;;;;;;5017218;28;19933;-78
2022/11/07 08:41:59;;;;;;;;;;;20.50;95.70;;;;;;5016650;28;19925;-78
2022/11/07 08:44:26;;;;;;;;;;;20.50;95.60;;;;;;5017549;28;19925;-78
2022/11/07 08:46:52;;;;;;;;;;;20.60;95.60;;;;;;5017321;28;19936;-78
2022/11/07 08:49:19;;;;;;;;;;;20.60;95.60;;;;;;5017756;28;19925;-78
2022/11/07 08:51:45;;;;;;;;;;;20.60;95.60;;;;;;5017349;28;19933;-78
2022/11/07 08:54:12;;;;;;;;;;;20.60;95.60;;;;;;5017981;28;19936;-78
2022/11/07 08:56:38;;;;;;;;;;;20.60;95.60;;;;;;5018953;28;19926;-78
2022/11/07 08:59:08;;;;;;;;;;;20.60;95.50;;;;;;5017816;28;20399;-78
2022/11/07 09:01:35;;;;;;;;;;;20.60;95.40;;;;;;5018170;28;19925;-78
2022/11/07 09:04:01;;;;;;;;;;;20.60;95.30;;;;;;5017780;28;19925;-78
2022/11/07 09:06:28;;;;;;;;;;;20.60;95.30;;;;;;5017968;28;19933;-78
2022/11/07 09:08:55;;;;;;;;;;;20.60;95.20;;;;;;5018076;28;19948;-78
2022/11/07 09:11:22;;;;;;;;;;;20.60;95.20;;;;;;5018623;28;19925;-79
2022/11/07 09:13:48;;;;;;;;;;;20.50;95.10;;;;;;5019904;28;19925;-79
2022/11/07 09:16:17;;;;;;;;;;;20.60;95.10;;;;;;5019631;28;19925;-79
2022/11/07 09:18:44;;;;;;;;;;;20.60;95.00;;;;;;5020321;28;19925;-79
2022/11/07 09:21:10;;;;;;;;;;;20.60;95.00;;;;;;5021810;28;19976;-78
2022/11/07 09:23:37;;;;;;;;;;;20.60;94.90;;;;;;5020533;28;20297;-78
2022/11/07 09:26:04;;;;;;;;;;;20.60;94.90;;;;;;5019958;28;19925;-78
2022/11/07 09:28:30;;;;;;;;;;;20.60;94.90;;;;;;5019305;28;20423;-78
2022/11/07 09:30:57;;;;;;;;;;;20.60;94.80;;;;;;5018882;28;19926;-78
2022/11/07 09:33:26;;;;;;;;;;;20.60;94.80;;;;;;5020142;28;19930;-78
2022/11/07 09:35:52;;;;;;;;;;;20.60;94.80;;;;;;5019860;28;20312;-78
2022/11/07 09:38:19;;;;;;;;;;;20.60;94.90;;;;;;5019882;28;19926;-78
2022/11/07 09:40:49;;;;;;;;;;;20.60;94.70;;;;;;5018890;28;19932;-78
2022/11/07 09:43:38;;;;;;;;;;;20.60;94.70;;;;;;5019349;28;19932;-78
2022/11/07 09:46:12;;;;;;;;;;;20.60;94.60;;;;;;4977842;28;20381;-78
2022/11/07 09:48:43;;;;;;;;;;;20.60;94.60;;;;;;5018785;28;19932;-78
2022/11/07 09:51:13;;;;;;;;;;;20.60;94.60;;;;;;5020049;28;20001;-78
2022/11/07 09:53:41;;;;;;;;;;;20.60;94.50;;;;;;5019336;28;20407;-78
2022/11/07 09:56:12;;;;;;;;;;;20.60;94.50;;;;;;5020099;28;19925;-79
2022/11/07 09:58:41;;;;;;;;;;;20.60;94.50;;;;;;5021252;28;19931;-79
2022/11/07 10:01:11;;;;;;;;;;;20.60;94.50;;;;;;5020560;28;19926;-79
2022/11/07 10:03:39;;;;;;;;;;;20.60;94.40;;;;;;5020647;28;19926;-79
2022/11/07 10:06:10;;;;;;;;;;;20.60;94.40;;;;;;5019974;28;19933;-79
2022/11/07 10:08:40;;;;;;;;;;;20.60;94.40;;;;;;5020149;28;20344;-79
2022/11/07 10:11:11;;;;;;;;;;;20.60;94.30;;;;;;5020784;28;19925;-79
2022/11/07 10:13:47;;;;;;;;;;;20.60;94.30;;;;;;5020127;28;19926;-80
2022/11/07 10:16:17;;;;;;;;;;;20.60;94.30;;;;;;5017997;28;19926;-81
2022/11/07 10:18:53;;;;;;;;;;;20.60;94.30;;;;;;5018992;28;19925;-80
2022/11/07 10:21:24;;;;;;;;;;;20.60;94.30;;;;;;5018961;28;20409;-79
2022/11/07 10:23:56;;;;;;;;;;;20.60;94.20;;;;;;5017632;28;20377;-81
2022/11/07 10:26:25;;;;;;;;;;;20.60;94.20;;;;;;5018945;28;19936;-80
2022/11/07 10:28:55;;;;;;;;;;;20.60;94.20;;;;;;5017572;28;19933;-80
2022/11/07 10:31:22;;;;;;;;;;;20.60;94.20;;;;;;5017451;28;19932;-79
2022/11/07 10:33:52;;;;;;;;;;;20.60;94.10;;;;;;5017484;28;19930;-79
2022/11/07 10:36:21;;;;;;;;;;;20.60;94.10;;;;;;5017351;28;19934;-79
2022/11/07 10:38:48;;;;;;;;;;;20.60;94.10;;;;;;5017508;28;19925;-79
2022/11/07 10:41:15;;;;;;;;;;;20.60;94.10;;;;;;5017205;28;19932;-79
2022/11/07 10:43:44;;;;;;;;;;;20.60;94.00;;;;;;5017296;28;19926;-79
2022/11/07 10:46:13;;;;;;;;;;;20.50;93.90;;;;;;5017524;28;19925;-79
2022/11/07 10:48:49;;;;;;;;;;;20.60;94.00;;;;;;5017333;28;19925;-79
2022/11/07 10:51:17;;;;;;;;;;;20.60;93.90;;;;;;5017692;28;19925;-79
2022/11/07 10:53:44;;;;;;;;;;;20.60;93.90;;;;;;5016753;28;20408;-79
2022/11/07 10:56:12;;;;;;;;;;;20.60;93.80;;;;;;5016979;28;19925;-79
2022/11/07 10:58:43;;;;;;;;;;;20.60;93.80;;;;;;5017677;28;19925;-79
2022/11/07 11:01:10;;;;;;;;;;;20.60;93.70;;;;;;5016851;28;20373;-79
2022/11/07 11:03:39;;;;;;;;;;;20.60;93.60;;;;;;5016910;28;19932;-79
2022/11/07 11:06:10;;;;;;;;;;;20.60;93.60;;;;;;5017022;28;19992;-79
2022/11/07 11:08:38;;;;;;;;;;;20.60;93.50;;;;;;5017354;28;19926;-79
2022/11/07 11:11:14;;;;;;;;;;;20.60;93.50;;;;;;5017034;28;19929;-79
2022/11/07 11:13:41;;;;;;;;;;;20.60;93.40;;;;;;5016988;28;19925;-79
2022/11/07 11:16:15;;;;;;;;;;;20.60;93.30;;;;;;5016609;28;19926;-79
2022/11/07 11:18:48;;;;;;;;;;;20.60;93.30;;;;;;5016366;28;19932;-79
2022/11/07 11:21:14;;;;;;;;;;;20.50;93.10;;;;;;5015795;28;19952;-79
2022/11/07 11:23:43;;;;;;;;;;;20.60;93.20;;;;;;5016847;28;19932;-79
2022/11/07 11:26:15;;;;;;;;;;;20.60;93.10;;;;;;5016202;28;19925;-79
2022/11/07 11:28:43;;;;;;;;;;;20.60;93.10;;;;;;5016287;28;20336;-79
2022/11/07 11:31:11;;;;;;;;;;;20.60;93.10;;;;;;5016159;28;19995;-79
2022/11/07 11:33:40;;;;;;;;;;;20.60;93.10;;;;;;5016783;28;19926;-79
2022/11/07 11:36:10;;;;;;;;;;;20.50;92.90;;;;;;5016470;28;19932;-79
2022/11/07 11:38:37;;;;;;;;;;;20.60;92.90;;;;;;5016444;28;19933;-79
2022/11/07 11:41:13;;;;;;;;;;;20.50;92.70;;;;;;5016004;28;19930;-80
2022/11/07 11:43:42;;;;;;;;;;;20.50;92.60;;;;;;5018164;28;19932;-78
2022/11/07 11:46:13;;;;;;;;;;;20.50;92.60;;;;;;5018958;28;20321;-79
2022/11/07 11:48:41;;;;;;;;;;;20.60;92.90;;;;;;5017301;28;19925;-79
2022/11/07 11:51:12;;;;;;;;;;;20.50;92.40;;;;;;5016376;28;19987;-79
2022/11/07 11:53:39;;;;;;;;;;;20.60;92.40;;;;;;5016739;28;19949;-79
2022/11/07 11:56:22;;;;;;;;;;;20.50;92.20;;;;;;5016004;28;19933;-79
2022/11/07 11:58:54;;;;;;;;;;;20.50;92.20;;;;;;5016464;28;19925;-79
2022/11/07 12:01:24;;;;;;;;;;;20.50;92.10;;;;;;5016517;28;19932;-79
2022/11/07 12:03:56;;;;;;;;;;;20.50;92.00;;;;;;5016719;28;19932;-79
2022/11/07 12:06:25;;;;;;;;;;;20.50;91.90;;;;;;5015519;28;19972;-79
2022/11/07 12:09:06;;;;;;;;;;;20.60;91.90;;;;;;5015119;28;20301;-79
2022/11/07 12:11:38;;;;;;;;;;;20.50;91.80;;;;;;5015691;28;20396;-79
2022/11/07 12:14:09;;;;;;;;;;;20.50;91.80;;;;;;5016397;28;19932;-79
2022/11/07 12:16:38;;;;;;;;;;;20.60;91.90;;;;;;5016243;28;20285;-79
2022/11/07 12:19:13;;;;;;;;;;;20.60;91.80;;;;;;5016448;28;20015;-79
2022/11/07 12:21:46;;;;;;;;;;;20.60;91.80;;;;;;5015705;28;19925;-79
2022/11/07 12:24:22;;;;;;;;;;;20.60;91.90;;;;;;5017093;28;19926;-78
2022/11/07 12:26:55;;;;;;;;;;;20.60;91.90;;;;;;5016951;28;19930;-79
2022/11/07 12:29:24;;;;;;;;;;;20.70;92.00;;;;;;5016224;28;19926;-79
2022/11/07 12:31:58;;;;;;;;;;;20.70;92.00;;;;;;5016086;28;19949;-79
2022/11/07 12:34:30;;;;;;;;;;;20.70;92.10;;;;;;5015825;28;19934;-79
2022/11/07 12:37:03;;;;;;;;;;;20.70;92.10;;;;;;5015283;28;20384;-79
2022/11/07 12:39:35;;;;;;;;;;;20.70;92.10;;;;;;5016019;28;20376;-79
2022/11/07 12:42:06;;;;;;;;;;;20.70;92.10;;;;;;5016046;28;19926;-79
2022/11/07 12:44:38;;;;;;;;;;;20.70;92.10;;;;;;5014818;28;19925;-80
2022/11/07 12:47:10;;;;;;;;;;;20.70;92.10;;;;;;5015122;28;19936;-80
2022/11/07 12:49:53;;;;;;;;;;;20.70;92.10;;;;;;5014957;28;19996;-81
2022/11/07 12:52:29;;;;;;;;;;;20.70;92.10;;;;;;5020664;28;19948;-81
2022/11/07 12:54:59;;;;;;;;;;;20.70;92.10;;;;;;5020766;28;19932;-81
2022/11/07 12:57:30;;;;;;;;;;;20.70;92.20;;;;;;5022165;28;19932;-80
2022/11/07 12:59:58;;;;;;;;;;;20.80;92.30;;;;;;5022234;28;19933;-81
2022/11/07 13:02:34;;;;;;;;;;;20.70;92.20;;;;;;5019536;28;19930;-81
2022/11/07 13:05:06;;;;;;;;;;;20.80;92.30;;;;;;5020303;28;19926;-80
2022/11/07 13:07:37;;;;;;;;;;;20.80;92.30;;;;;;5018246;28;19925;-80
2022/11/07 13:10:09;;;;;;;;;;;20.80;92.30;;;;;;5021770;28;20369;-81
2022/11/07 13:12:40;;;;;;;;;;;20.80;92.30;;;;;;5022183;28;20001;-79
2022/11/07 13:15:09;;;;;;;;;;;20.80;92.30;;;;;;5020921;28;20012;-79
2022/11/07 13:17:40;;;;;;;;;;;20.80;92.30;;;;;;5018317;28;19930;-80
2022/11/07 13:20:24;;;;;;;;;;;20.80;92.30;;;;;;5017658;28;19926;-79
2022/11/07 13:22:53;;;;;;;;;;;20.80;92.30;;;;;;5022014;28;19925;-80
2022/11/07 13:25:24;;;;;;;;;;;20.80;92.20;;;;;;5023704;28;19932;-80
2022/11/07 13:28:04;;;;;;;;;;;20.80;92.10;;;;;;5022625;28;19925;-80
2022/11/07 13:30:35;;;;;;;;;;;20.80;92.00;;;;;;5022230;28;19926;-79
2022/11/07 13:33:03;;;;;;;;;;;20.70;92.00;;;;;;5021312;28;19925;-79
2022/11/07 13:35:31;;;;;;;;;;;20.80;92.00;;;;;;5021973;28;19976;-80
2022/11/07 13:37:59;;;;;;;;;;;20.70;91.90;;;;;;5021216;28;19925;-79
2022/11/07 13:40:27;;;;;;;;;;;20.70;91.90;;;;;;5021132;28;20435;-79
2022/11/07 13:42:56;;;;;;;;;;;20.70;92.00;;;;;;5019073;28;19949;-81
2022/11/07 13:45:26;;;;;;;;;;;20.80;92.00;;;;;;5017163;28;19925;-80
2022/11/07 13:47:54;;;;;;;;;;;20.40;91.90;;;;;;5020262;28;19929;-79
2022/11/07 13:50:23;;;;;;;;;;;20.70;92.00;;;;;;5019299;28;20384;-80
2022/11/07 13:52:55;;;;;;;;;;;20.70;92.00;;;;;;5020566;28;19925;-80
2022/11/07 13:55:23;;;;;;;;;;;20.80;92.10;;;;;;5020873;28;19937;-80
2022/11/07 13:57:52;;;;;;;;;;;20.80;92.20;;;;;;5021522;28;19932;-80
2022/11/07 14:00:19;;;;;;;;;;;20.70;92.10;;;;;;5023622;28;19925;-80
2022/11/07 14:02:51;;;;;;;;;;;20.80;92.10;;;;;;5020211;28;20025;-80
2022/11/07 14:05:20;;;;;;;;;;;20.70;92.00;;;;;;5020278;28;19925;-76
2022/11/07 14:07:48;;;;;;;;;;;20.70;92.00;;;;;;5018273;28;19926;-76
2022/11/07 14:10:19;;;;;;;;;;;20.70;92.00;;;;;;5018663;28;19926;-75
2022/11/07 14:12:45;;;;;;;;;;;20.70;92.00;;;;;;5017628;28;19936;-76
2022/11/07 14:15:14;;;;;;;;;;;20.70;92.00;;;;;;5018472;28;19926;-76
2022/11/07 14:17:40;;;;;;;;;;;20.70;92.00;;;;;;5017530;28;19932;-76
2022/11/07 14:20:14;;;;;;;;;;;20.70;92.00;;;;;;5017585;28;19933;-76
2022/11/07 14:22:47;;;;;;;;;;;20.70;92.00;;;;;;5017503;28;20366;-75
2022/11/07 14:25:18;;;;;;;;;;;20.70;92.10;;;;;;5017660;28;19941;-75
2022/11/07 14:27:45;;;;;;;;;;;20.70;92.40;;;;;;5016989;28;19930;-76
2022/11/07 14:30:15;;;;;;;;;;;20.70;92.10;;;;;;5016502;28;20403;-76
2022/11/07 14:32:46;;;;;;;;;;;20.70;92.10;;;;;;5016489;28;20386;-76
2022/11/07 14:35:17;;;;;;;;;;;20.70;92.10;;;;;;5016776;28;19926;-76
2022/11/07 14:37:44;;;;;;;;;;;20.50;92.00;;;;;;5016736;28;19926;-77
2022/11/07 14:40:11;;;;;;;;;;;20.70;92.10;;;;;;5016680;28;19932;-77
2022/11/07 14:42:37;;;;;;;;;;;20.70;92.00;;;;;;5016476;28;19932;-77
2022/11/07 14:45:05;;;;;;;;;;;20.70;92.00;;;;;;5016242;28;20439;-77
2022/11/07 14:47:33;;;;;;;;;;;20.70;92.00;;;;;;5016134;28;19932;-77
2022/11/07 14:50:01;;;;;;;;;;;20.70;92.00;;;;;;5016445;28;19926;-77
2022/11/07 14:52:32;;;;;;;;;;;20.60;92.00;;;;;;5016317;28;19926;-76
2022/11/07 14:55:01;;;;;;;;;;;20.60;91.90;;;;;;5016387;28;19932;-76
2022/11/07 14:57:28;;;;;;;;;;;20.60;91.90;;;;;;5015713;28;19925;-76
2022/11/07 14:59:55;;;;;;;;;;;20.60;91.90;;;;;;5016296;28;19932;-75
2022/11/07 15:02:24;;;;;;;;;;;20.60;91.90;;;;;;5016407;28;19926;-78
2022/11/07 15:04:51;;;;;;;;;;;20.60;91.90;;;;;;5016598;28;19925;-75
2022/11/07 15:07:21;;;;;;;;;;;20.60;91.90;;;;;;5016337;28;19930;-75
2022/11/07 15:09:49;;;;;;;;;;;20.60;91.90;;;;;;5016094;28;19925;-75
2022/11/07 15:12:17;;;;;;;;;;;20.60;91.90;;;;;;5015642;28;19929;-75
2022/11/07 15:14:44;;;;;;;;;;;20.60;92.30;;;;;;5015983;28;19925;-76
2022/11/07 15:17:20;;;;;;;;;;;20.50;91.90;;;;;;5016042;28;19932;-76
2022/11/07 15:19:54;;;;;;;;;;;20.60;92.00;;;;;;5015915;28;19932;-76
2022/11/07 15:22:24;;;;;;;;;;;20.60;92.00;;;;;;5015462;28;19925;-77
2022/11/07 15:24:52;;;;;;;;;;;20.60;92.00;;;;;;5015485;28;20396;-77
2022/11/07 15:27:20;;;;;;;;;;;20.60;91.90;;;;;;5015738;28;19926;-77
2022/11/07 15:29:51;;;;;;;;;;;20.50;91.90;;;;;;5015580;28;19933;-77
2022/11/07 15:32:19;;;;;;;;;;;20.60;91.90;;;;;;5015598;28;19925;-77
2022/11/07 15:34:48;;;;;;;;;;;20.60;91.90;;;;;;5015620;28;19925;-77
2022/11/07 15:37:15;;;;;;;;;;;20.60;91.90;;;;;;5015184;28;20412;-77
2022/11/07 15:39:42;;;;;;;;;;;20.60;91.80;;;;;;5015492;28;19925;-77
2022/11/07 15:42:10;;;;;;;;;;;20.50;91.80;;;;;;5015429;28;20289;-76
2022/11/07 15:44:37;;;;;;;;;;;20.50;91.70;;;;;;5015388;28;19936;-76
2022/11/07 15:47:04;;;;;;;;;;;20.50;91.70;;;;;;5015411;28;20008;-76
2022/11/07 15:49:32;;;;;;;;;;;20.50;91.70;;;;;;5015238;28;19933;-76
2022/11/07 15:51:59;;;;;;;;;;;20.50;92.00;;;;;;5015195;28;19925;-76
2022/11/07 15:54:26;;;;;;;;;;;20.50;91.60;;;;;;5015195;28;19929;-76
2022/11/07 15:56:54;;;;;;;;;;;20.50;91.60;;;;;;5014856;28;20365;-76
2022/11/07 15:59:23;;;;;;;;;;;20.50;91.60;;;;;;5015161;28;19933;-76
2022/11/07 16:01:49;;;;;;;;;;;20.40;91.60;;;;;;5015062;28;19932;-75
2022/11/07 16:04:16;;;;;;;;;;;20.40;91.50;;;;;;5014767;28;20465;-75
2022/11/07 16:06:43;;;;;;;;;;;20.50;91.50;;;;;;5015075;28;19925;-75
2022/11/07 16:09:12;;;;;;;;;;;20.50;91.60;;;;;;5014855;28;19925;-75
2022/11/07 16:11:38;;;;;;;;;;;20.50;91.60;;;;;;5014594;28;19925;-74
2022/11/07 16:14:05;;;;;;;;;;;20.50;91.60;;;;;;5014625;28;19925;-75
2022/11/07 16:16:34;;;;;;;;;;;20.40;91.50;;;;;;5014931;28;19925;-74
2022/11/07 16:19:01;;;;;;;;;;;20.50;91.60;;;;;;5014859;28;19925;-74
2022/11/07 16:21:27;;;;;;;;;;;20.50;91.60;;;;;;5014412;28;20412;-74
2022/11/07 16:23:54;;;;;;;;;;;20.50;91.60;;;;;;5014824;28;19948;-75
2022/11/07 16:26:24;;;;;;;;;;;20.50;92.00;;;;;;5014801;28;19933;-75
2022/11/07 16:28:50;;;;;;;;;;;20.50;91.70;;;;;;5015145;28;19925;-78
2022/11/07 16:31:17;;;;;;;;;;;20.50;91.70;;;;;;5016769;28;19930;-79
2022/11/07 16:33:45;;;;;;;;;;;20.50;91.70;;;;;;5016144;28;20274;-78
2022/11/07 16:36:16;;;;;;;;;;;20.50;91.70;;;;;;5015716;28;19926;-79
2022/11/07 16:38:45;;;;;;;;;;;20.50;91.70;;;;;;5018532;28;21313;-80
2022/11/07 16:41:12;;;;;;;;;;;20.50;91.70;;;;;;5022506;28;19932;-79
2022/11/07 16:43:39;;;;;;;;;;;20.50;91.80;;;;;;5022706;28;19980;-79
2022/11/07 16:46:11;;;;;;;;;;;20.50;91.80;;;;;;5022051;28;19932;-79
2022/11/07 16:48:38;;;;;;;;;;;20.50;91.80;;;;;;5018409;28;19926;-78
2022/11/07 16:51:06;;;;;;;;;;;20.50;91.80;;;;;;5019454;28;19932;-78
2022/11/07 16:53:32;;;;;;;;;;;20.50;91.80;;;;;;5021004;28;19926;-79
2022/11/07 16:56:01;;;;;;;;;;;20.50;91.90;;;;;;5018522;28;19926;-78
2022/11/07 16:58:28;;;;;;;;;;;20.50;92.00;;;;;;5020586;28;20407;-78
2022/11/07 17:00:56;;;;;;;;;;;20.60;92.00;;;;;;5022260;28;19925;-79
2022/11/07 17:03:23;;;;;;;;;;;20.60;92.10;;;;;;5022049;28;19925;-79
2022/11/07 17:05:51;;;;;;;;;;;20.50;92.10;;;;;;5023098;28;19931;-79
2022/11/07 17:08:20;;;;;;;;;;;20.50;92.10;;;;;;5022829;28;19934;-82
2022/11/07 17:10:48;;;;;;;;;;;20.60;92.20;;;;;;5019345;28;19933;-81
2022/11/07 17:13:15;;;;;;;;;;;20.50;92.20;;;;;;5019107;28;19925;-78
2022/11/07 17:15:43;;;;;;;;;;;20.50;92.30;;;;;;5019855;28;19926;-80
2022/11/07 17:18:16;;;;;;;;;;;20.50;92.40;;;;;;5020643;28;19926;-80
2022/11/07 17:20:44;;;;;;;;;;;20.50;92.40;;;;;;5021382;28;19932;-80
2022/11/07 17:23:11;;;;;;;;;;;20.50;92.50;;;;;;5024464;28;19949;-80
2022/11/07 17:25:40;;;;;;;;;;;20.50;92.50;;;;;;5023054;28;19965;-82
2022/11/07 17:28:07;;;;;;;;;;;20.50;92.60;;;;;;5023405;28;19953;-80
2022/11/07 17:30:34;;;;;;;;;;;20.60;92.70;;;;;;5024763;28;19960;-79
2022/11/07 17:33:02;;;;;;;;;;;20.50;92.70;;;;;;5024170;28;20504;-79
2022/11/07 17:35:29;;;;;;;;;;;20.60;92.90;;;;;;5023096;28;19976;-80
2022/11/07 17:37:57;;;;;;;;;;;20.60;93.00;;;;;;5023500;28;19980;-76
2022/11/07 17:40:25;;;;;;;;;;;20.60;93.10;;;;;;5023410;28;20344;-78
2022/11/07 17:42:53;;;;;;;;;;;20.60;93.10;;;;;;5023068;28;19926;-78
2022/11/07 17:45:20;;;;;;;;;;;20.60;93.10;;;;;;5017789;28;20497;-78
2022/11/07 17:47:46;;;;;;;;;;;20.60;93.30;;;;;;5018313;28;19930;-78
2022/11/07 17:50:14;;;;;;;;;;;20.60;93.40;;;;;;5017955;28;20348;-80
2022/11/07 17:52:41;;;;;;;;;;;20.60;93.50;;;;;;5020131;28;19932;-79
2022/11/07 17:55:08;;;;;;;;;;;20.60;93.60;;;;;;5020457;28;19930;-79
2022/11/07 17:57:35;;;;;;;;;;;20.70;93.70;;;;;;5019449;28;19926;-79
2022/11/07 18:00:03;;;;;;;;;;;20.70;93.80;;;;;;5020402;28;19925;-79
2022/11/07 18:02:30;;;;;;;;;;;20.60;93.80;;;;;;5020416;28;19926;-79
2022/11/07 18:04:57;;;;;;;;;;;20.60;93.90;;;;;;5021419;28;19930;-79
2022/11/07 18:07:23;;;;;;;;;;;20.70;94.00;;;;;;5021442;28;19932;-79
2022/11/07 18:09:51;;;;;;;;;;;20.60;94.10;;;;;;5025689;28;20376;-80
2022/11/07 18:12:18;;;;;;;;;;;20.60;94.10;;;;;;5025190;28;19993;-79
2022/11/07 18:14:44;;;;;;;;;;;20.70;94.20;;;;;;5019641;28;19925;-78
2022/11/07 18:17:12;;;;;;;;;;;20.60;94.20;;;;;;5020923;28;19932;-79
2022/11/07 18:19:39;;;;;;;;;;;20.60;94.30;;;;;;5018947;28;19925;-78
2022/11/07 18:22:06;;;;;;;;;;;20.60;94.40;;;;;;5022934;28;19932;-79
2022/11/07 18:24:32;;;;;;;;;;;20.70;94.50;;;;;;5021773;28;19925;-78
2022/11/07 18:26:59;;;;;;;;;;;20.60;94.50;;;;;;5020460;28;19932;-79
2022/11/07 18:29:25;;;;;;;;;;;20.60;95.00;;;;;;5018894;28;19932;-78
2022/11/07 18:31:52;;;;;;;;;;;20.70;94.70;;;;;;5017248;28;20389;-79
2022/11/07 18:34:20;;;;;;;;;;;20.70;94.80;;;;;;5020354;28;20381;-79
2022/11/07 18:36:46;;;;;;;;;;;20.70;95.00;;;;;;5022998;28;20339;-79
2022/11/07 18:39:14;;;;;;;;;;;20.70;95.20;;;;;;5019397;28;19925;-79
2022/11/07 18:41:41;;;;;;;;;;;20.70;95.30;;;;;;5019724;28;19979;-77
2022/11/07 18:44:09;;;;;;;;;;;20.70;95.50;;;;;;5020512;28;20369;-78
2022/11/07 18:46:36;;;;;;;;;;;20.90;95.70;;;;;;5017708;28;20020;-79
2022/11/07 18:49:02;;;;;;;;;;;20.80;95.70;;;;;;5017757;28;19926;-79
2022/11/07 18:51:30;;;;;;;;;;;20.70;95.60;;;;;;5018884;28;19932;-80
2022/11/07 18:53:59;;;;;;;;;;;20.70;95.60;;;;;;5017559;28;19930;-79
2022/11/07 18:56:25;;;;;;;;;;;20.70;95.60;;;;;;5017849;28;20404;-82
2022/11/07 18:58:52;;;;;;;;;;;20.70;96.00;;;;;;5018644;28;19925;-82
2022/11/07 19:01:20;;;;;;;;;;;20.60;95.60;;;;;;5018995;28;20381;-81
2022/11/07 19:03:47;;;;;;;;;;;20.60;95.70;;;;;;5019145;28;19926;-81
2022/11/07 19:06:14;;;;;;;;;;;20.70;95.80;;;;;;5019327;28;19933;-81
2022/11/07 19:08:42;;;;;;;;;;;20.50;95.80;;;;;;5018275;28;19926;-81
2022/11/07 19:11:10;;;;;;;;;;;20.20;95.70;;;;;;5018621;28;20278;-81
2022/11/07 19:13:38;;;;;;;;;;;20.60;96.00;;;;;;5018106;28;19935;-78
2022/11/07 19:16:06;;;;;;;;;;;20.40;95.90;;;;;;5017872;28;19926;-80
2022/11/07 19:18:32;;;;;;;;;;;20.40;96.10;;;;;;5019320;28;19933;-80
2022/11/07 19:20:59;;;;;;;;;;;20.40;96.10;;;;;;5019017;28;19937;-81